Time;durP1;ratioP1;P1;durP2;ratioP2;P2;SDS_P1;SDS_P2;PMS_P1;PMS_P2;Temp;Humidity;BMP_temperature;BMP_pressure;BME280_temperature;BME280_humidity;BME280_pressure;Samples;Min_cycle;Max_cycle;Signal;HPM_P1;HPM_P2
2022/05/28 00:00:17;;;;;;;4.27;1.30;;;9.70;99.90;;;;;;5071633;28;20234;-77
2022/05/28 00:02:44;;;;;;;1.30;0.83;;;9.70;99.90;;;;;;5071421;28;20199;-76
2022/05/28 00:05:11;;;;;;;3.00;1.00;;;9.60;99.90;;;;;;5071741;28;20207;-76
2022/05/28 00:07:38;;;;;;;4.20;1.20;;;9.70;99.90;;;;;;5071365;28;20556;-76
2022/05/28 00:10:06;;;;;;;3.40;1.20;;;9.60;99.90;;;;;;5071099;28;20572;-76
2022/05/28 00:12:34;;;;;;;3.80;1.00;;;9.60;99.90;;;;;;5071379;28;20242;-76
2022/05/28 00:15:00;;;;;;;2.33;1.30;;;9.70;99.90;;;;;;5071296;28;20199;-76
2022/05/28 00:17:28;;;;;;;2.77;1.10;;;9.60;99.90;;;;;;5070920;28;20249;-76
2022/05/28 00:19:54;;;;;;;4.97;1.20;;;9.60;99.90;;;;;;5071059;28;20203;-76
2022/05/28 00:22:21;;;;;;;2.57;1.10;;;9.60;99.90;;;;;;5071281;28;20226;-76
2022/05/28 00:24:48;;;;;;;7.37;1.90;;;9.70;99.90;;;;;;5070688;28;20657;-76
2022/05/28 00:27:16;;;;;;;1.40;1.07;;;9.60;99.90;;;;;;5071010;28;20257;-76
2022/05/28 00:29:44;;;;;;;2.23;1.00;;;9.50;99.90;;;;;;5050736;28;20220;-76
2022/05/28 00:32:11;;;;;;;4.87;1.23;;;9.60;99.90;;;;;;5050872;28;20266;-77
2022/05/28 00:34:40;;;;;;;3.77;1.60;;;9.50;99.90;;;;;;5050862;28;20204;-77
2022/05/28 00:37:08;;;;;;;1.93;1.43;;;9.50;99.90;;;;;;5050784;28;20207;-76
2022/05/28 00:39:37;;;;;;;2.67;1.17;;;9.50;99.90;;;;;;5052335;28;20212;-76
2022/05/28 00:42:04;;;;;;;4.00;1.27;;;9.60;99.90;;;;;;5070347;28;20235;-78
2022/05/28 00:44:30;;;;;;;6.20;1.83;;;9.60;99.90;;;;;;5070752;28;20249;-78
2022/05/28 00:46:59;;;;;;;6.27;1.63;;;9.60;99.90;;;;;;5066489;28;20227;-78
2022/05/28 00:49:30;;;;;;;7.37;1.47;;;9.50;99.90;;;;;;5070794;28;20243;-78
2022/05/28 00:52:00;;;;;;;3.87;1.13;;;9.60;99.90;;;;;;5070259;28;20222;-78
2022/05/28 00:54:28;;;;;;;5.27;1.70;;;9.50;99.90;;;;;;5070373;28;20246;-78
2022/05/28 00:56:55;;;;;;;3.97;1.37;;;9.60;99.90;;;;;;5070362;28;20281;-78
2022/05/28 00:59:21;;;;;;;5.47;1.97;;;9.60;99.90;;;;;;5057818;28;20211;-78
2022/05/28 01:01:50;;;;;;;4.50;1.53;;;9.60;99.90;;;;;;5070040;28;20684;-78
2022/05/28 01:04:27;;;;;;;10.10;1.67;;;9.70;99.90;;;;;;5070014;28;20212;-77
2022/05/28 01:07:00;;;;;;;4.87;1.77;;;9.60;99.90;;;;;;5070246;28;20467;-77
2022/05/28 01:09:36;;;;;;;4.50;1.27;;;9.50;99.90;;;;;;5070083;28;20261;-77
2022/05/28 01:12:10;;;;;;;3.53;1.60;;;9.50;99.90;;;;;;5070134;28;20195;-77
2022/05/28 01:14:44;;;;;;;3.40;1.37;;;9.40;99.90;;;;;;5060471;28;20202;-77
2022/05/28 01:17:14;;;;;;;3.77;1.40;;;9.40;99.90;;;;;;5054590;28;20284;-77
2022/05/28 01:19:51;;;;;;;6.03;1.53;;;9.50;99.90;;;;;;5070202;28;20657;-77
2022/05/28 01:22:23;;;;;;;4.50;1.43;;;9.50;99.90;;;;;;5050727;28;20287;-77
2022/05/28 01:24:59;;;;;;;4.47;1.57;;;9.50;99.90;;;;;;5060595;28;20267;-77
2022/05/28 01:27:32;;;;;;;7.43;1.67;;;9.50;99.90;;;;;;5069280;28;20280;-77
2022/05/28 01:30:05;;;;;;;4.07;1.33;;;9.50;99.90;;;;;;5049744;28;20192;-77
2022/05/28 01:32:34;;;;;;;4.03;1.70;;;9.50;99.90;;;;;;5049864;28;20251;-77
2022/05/28 01:35:04;;;;;;;2.57;1.20;;;9.50;99.90;;;;;;5049743;28;20296;-76
2022/05/28 01:37:32;;;;;;;2.67;1.30;;;9.50;99.90;;;;;;5058449;28;20200;-76
2022/05/28 01:40:00;;;;;;;5.43;1.73;;;9.50;99.90;;;;;;5064958;28;20203;-76
2022/05/28 01:42:29;;;;;;;5.30;1.40;;;9.50;99.90;;;;;;5069497;28;20309;-75
2022/05/28 01:44:56;;;;;;;6.77;1.60;;;9.40;99.90;;;;;;5069564;28;20207;-74
2022/05/28 01:47:24;;;;;;;3.90;1.47;;;9.50;99.90;;;;;;5069460;28;20227;-76
2022/05/28 01:49:53;;;;;;;3.83;1.33;;;9.40;99.90;;;;;;5069387;28;20211;-76
2022/05/28 01:52:21;;;;;;;3.10;1.50;;;9.50;99.90;;;;;;5069399;28;20204;-76
2022/05/28 01:54:50;;;;;;;3.33;1.37;;;9.40;99.90;;;;;;5057483;28;20273;-76
2022/05/28 01:57:17;;;;;;;3.87;1.10;;;9.40;99.90;;;;;;5068710;28;20813;-79
2022/05/28 01:59:45;;;;;;;3.97;1.90;;;9.40;99.90;;;;;;5068146;28;20252;-80
2022/05/28 02:02:14;;;;;;;5.47;1.63;;;9.40;99.90;;;;;;5069307;28;20234;-80
2022/05/28 02:04:43;;;;;;;7.63;1.80;;;9.40;99.90;;;;;;5069029;28;20678;-80
2022/05/28 02:07:10;;;;;;;4.27;1.13;;;9.30;99.90;;;;;;5069204;28;20277;-81
2022/05/28 02:09:42;;;;;;;5.70;1.63;;;9.40;99.90;;;;;;5069129;28;20574;-80
2022/05/28 02:12:20;;;;;;;6.33;1.53;;;9.40;99.90;;;;;;5069081;28;20249;-80
2022/05/28 02:15:02;;;;;;;4.67;1.73;;;9.30;99.90;;;;;;5068496;28;20203;-77
2022/05/28 02:17:38;;;;;;;4.10;1.30;;;9.30;99.90;;;;;;5061700;28;20257;-78
2022/05/28 02:20:13;;;;;;;5.67;1.50;;;9.40;99.90;;;;;;5066997;28;20202;-78
2022/05/28 02:22:47;;;;;;;4.10;1.40;;;9.30;99.90;;;;;;5068680;28;20668;-78
2022/05/28 02:25:18;;;;;;;4.30;1.57;;;9.30;99.90;;;;;;5053433;28;20639;-78
2022/05/28 02:27:47;;;;;;;7.13;2.07;;;9.30;99.90;;;;;;5048814;28;20196;-78
2022/05/28 02:30:16;;;;;;;4.73;1.57;;;9.30;99.90;;;;;;5048904;28;20208;-78
2022/05/28 02:32:43;;;;;;;4.60;1.47;;;9.30;99.90;;;;;;5055481;28;20732;-78
2022/05/28 02:35:11;;;;;;;3.23;1.80;;;9.30;99.90;;;;;;5061754;28;20208;-78
2022/05/28 02:37:38;;;;;;;5.37;1.47;;;9.40;99.90;;;;;;5048662;28;20363;-78
2022/05/28 02:40:06;;;;;;;4.63;1.77;;;9.40;99.90;;;;;;5048368;28;20208;-79
2022/05/28 02:42:33;;;;;;;4.20;1.50;;;9.40;99.90;;;;;;5048097;28;20302;-77
2022/05/28 02:45:00;;;;;;;5.27;1.57;;;9.30;99.90;;;;;;5047958;28;20318;-77
2022/05/28 02:47:28;;;;;;;6.40;1.67;;;9.30;99.90;;;;;;5055239;28;20315;-81
2022/05/28 02:49:54;;;;;;;4.47;1.50;;;9.30;99.90;;;;;;5068530;28;20676;-81
2022/05/28 02:52:21;;;;;;;4.47;1.63;;;9.20;99.90;;;;;;5068316;28;20214;-81
2022/05/28 02:54:47;;;;;;;4.17;1.70;;;9.20;99.90;;;;;;5068300;28;20235;-81
2022/05/28 02:57:14;;;;;;;5.00;1.37;;;9.30;99.90;;;;;;5068560;28;20622;-78
2022/05/28 02:59:41;;;;;;;5.37;1.30;;;9.20;99.90;;;;;;5068641;28;20574;-80
2022/05/28 03:02:07;;;;;;;4.03;1.27;;;9.40;99.90;;;;;;5068577;28;20219;-78
2022/05/28 03:04:35;;;;;;;4.60;1.23;;;9.30;99.90;;;;;;5068164;28;20211;-79
2022/05/28 03:07:02;;;;;;;5.23;1.40;;;9.30;99.90;;;;;;5068216;28;20207;-79
2022/05/28 03:09:28;;;;;;;4.60;1.50;;;9.20;99.90;;;;;;5068364;28;20211;-76
2022/05/28 03:11:55;;;;;;;5.07;1.87;;;9.20;99.90;;;;;;5067968;28;20208;-76
2022/05/28 03:14:22;;;;;;;3.23;1.70;;;9.20;99.90;;;;;;5067782;28;20701;-76
2022/05/28 03:16:48;;;;;;;5.23;1.47;;;9.20;99.90;;;;;;5063143;28;20212;-76
2022/05/28 03:19:15;;;;;;;4.40;1.50;;;9.20;99.90;;;;;;5067938;28;20249;-77
2022/05/28 03:21:43;;;;;;;5.70;1.47;;;9.20;99.90;;;;;;5067715;28;20662;-76
2022/05/28 03:24:09;;;;;;;6.60;1.97;;;9.20;99.90;;;;;;5067744;28;20268;-76
2022/05/28 03:26:36;;;;;;;4.37;1.20;;;9.30;99.90;;;;;;5067714;28;20223;-76
2022/05/28 03:29:04;;;;;;;6.33;1.87;;;9.30;99.90;;;;;;5067800;28;20227;-77
2022/05/28 03:31:31;;;;;;;6.37;1.50;;;9.30;99.90;;;;;;5068019;28;20203;-77
2022/05/28 03:33:59;;;;;;;3.50;1.80;;;9.40;99.90;;;;;;5067887;28;20271;-78
2022/05/28 03:36:26;;;;;;;4.87;1.20;;;9.30;99.90;;;;;;5067926;28;20287;-77
2022/05/28 03:38:54;;;;;;;6.73;1.53;;;9.40;99.90;;;;;;5067545;28;20222;-78
2022/05/28 03:41:21;;;;;;;3.93;1.47;;;9.40;99.90;;;;;;5067443;28;20292;-76
2022/05/28 03:43:48;;;;;;;3.97;1.20;;;9.40;99.90;;;;;;5067392;28;20211;-77
2022/05/28 03:46:25;;;;;;;4.57;1.50;;;9.50;99.90;;;;;;5067570;28;20232;-78
2022/05/28 03:48:53;;;;;;;5.47;1.43;;;9.40;99.90;;;;;;5067035;28;20240;-79
2022/05/28 03:51:20;;;;;;;4.27;1.67;;;9.50;99.90;;;;;;5057375;28;20227;-77
2022/05/28 03:53:47;;;;;;;3.03;1.53;;;9.60;99.90;;;;;;5058160;28;20227;-77
2022/05/28 03:56:15;;;;;;;5.73;1.90;;;9.60;99.90;;;;;;5067323;28;20207;-76
2022/05/28 03:58:41;;;;;;;7.53;1.77;;;9.50;99.90;;;;;;5067499;28;20222;-77
2022/05/28 04:01:08;;;;;;;7.67;1.50;;;9.60;99.90;;;;;;5067254;28;20239;-77
2022/05/28 04:03:35;;;;;;;2.30;0.90;;;9.50;99.90;;;;;;5067453;28;20207;-77
2022/05/28 04:06:05;;;;;;;5.07;1.40;;;9.60;99.90;;;;;;5067417;28;20204;-77
2022/05/28 04:08:32;;;;;;;6.53;1.40;;;9.70;99.90;;;;;;5067150;28;20195;-77
2022/05/28 04:10:59;;;;;;;3.17;1.37;;;9.60;99.90;;;;;;5067367;28;20219;-77
2022/05/28 04:13:27;;;;;;;7.87;1.93;;;9.70;99.90;;;;;;5061052;28;20232;-77
2022/05/28 04:15:53;;;;;;;7.43;1.63;;;9.80;99.90;;;;;;5047166;28;20265;-76
2022/05/28 04:18:20;;;;;;;4.17;1.73;;;9.80;99.90;;;;;;5061254;28;20211;-77
2022/05/28 04:20:47;;;;;;;4.03;1.40;;;9.80;99.90;;;;;;5066942;28;20653;-76
2022/05/28 04:23:13;;;;;;;3.23;1.97;;;9.80;99.90;;;;;;5067013;28;20264;-76
2022/05/28 04:25:40;;;;;;;3.30;1.33;;;9.70;99.90;;;;;;5067125;28;20704;-77
2022/05/28 04:28:08;;;;;;;1.87;1.60;;;9.70;99.90;;;;;;5067230;28;20261;-76
2022/05/28 04:30:36;;;;;;;3.20;1.40;;;9.70;99.90;;;;;;5067182;28;20211;-78
2022/05/28 04:33:02;;;;;;;6.40;1.60;;;9.70;99.90;;;;;;5067122;28;20211;-78
2022/05/28 04:35:29;;;;;;;2.77;1.20;;;9.60;99.90;;;;;;5067331;28;20224;-78
2022/05/28 04:37:56;;;;;;;4.87;1.30;;;9.60;99.90;;;;;;5066788;28;20203;-78
2022/05/28 04:40:23;;;;;;;3.57;1.33;;;9.50;99.90;;;;;;5070208;28;20203;-77
2022/05/28 04:42:49;;;;;;;4.60;1.27;;;9.40;99.90;;;;;;5062458;28;20208;-77
2022/05/28 04:45:16;;;;;;;4.83;1.67;;;9.40;99.90;;;;;;5070547;28;20223;-76
2022/05/28 04:47:44;;;;;;;3.47;1.27;;;9.40;99.90;;;;;;5070542;28;20257;-80
2022/05/28 04:50:11;;;;;;;2.37;1.20;;;9.30;99.90;;;;;;5070498;28;20670;-80
2022/05/28 04:52:38;;;;;;;4.33;1.40;;;9.30;99.90;;;;;;5070730;28;20237;-79
2022/05/28 04:55:07;;;;;;;2.33;1.03;;;9.20;99.90;;;;;;5070070;28;20232;-79
2022/05/28 04:57:33;;;;;;;2.83;0.97;;;9.20;99.90;;;;;;5058360;28;20196;-79
2022/05/28 05:00:00;;;;;;;2.57;1.00;;;9.30;99.90;;;;;;5049955;28;20670;-77
2022/05/28 05:02:27;;;;;;;3.87;1.27;;;9.30;99.90;;;;;;5050419;28;20204;-77
2022/05/28 05:04:58;;;;;;;1.23;1.03;;;9.30;99.90;;;;;;5050288;28;20235;-77
2022/05/28 05:07:26;;;;;;;4.03;0.90;;;9.40;99.90;;;;;;5050235;28;20204;-77
2022/05/28 05:09:52;;;;;;;3.60;1.47;;;9.40;99.90;;;;;;5053569;28;20212;-76
2022/05/28 05:12:19;;;;;;;1.00;0.90;;;9.40;99.90;;;;;;5070515;28;20238;-77
2022/05/28 05:14:46;;;;;;;1.60;0.80;;;9.50;99.90;;;;;;5070151;28;20277;-76
2022/05/28 05:17:12;;;;;;;2.63;1.17;;;9.60;99.90;;;;;;5063258;28;20624;-76
2022/05/28 05:19:39;;;;;;;4.03;1.10;;;9.60;99.90;;;;;;5070417;28;20203;-76
2022/05/28 05:22:07;;;;;;;2.07;0.90;;;9.70;99.90;;;;;;5070253;28;20207;-77
2022/05/28 05:24:34;;;;;;;2.33;0.87;;;9.70;99.90;;;;;;5057660;28;20200;-77
2022/05/28 05:27:00;;;;;;;2.40;1.27;;;9.80;99.90;;;;;;5050157;28;20204;-77
2022/05/28 05:29:27;;;;;;;1.73;0.93;;;9.80;99.90;;;;;;5049885;28;20270;-77
2022/05/28 05:31:54;;;;;;;2.13;0.90;;;9.70;99.90;;;;;;5049790;28;20212;-77
2022/05/28 05:34:21;;;;;;;3.63;1.47;;;9.70;99.90;;;;;;5053216;28;20223;-77
2022/05/28 05:36:47;;;;;;;1.40;1.03;;;9.70;99.90;;;;;;5069720;28;20588;-77
2022/05/28 05:39:19;;;;;;;2.73;1.37;;;9.60;99.90;;;;;;5068771;28;20920;-78
2022/05/28 05:41:46;;;;;;;4.17;1.80;;;9.50;99.90;;;;;;5069160;28;20303;-78
2022/05/28 05:44:13;;;;;;;2.77;1.50;;;9.60;99.90;;;;;;5069768;28;20253;-78
2022/05/28 05:46:40;;;;;;;2.00;1.07;;;9.60;99.90;;;;;;5069618;28;20276;-78
2022/05/28 05:49:07;;;;;;;2.00;1.20;;;9.70;99.90;;;;;;5069621;28;20203;-78
2022/05/28 05:51:38;;;;;;;1.87;1.20;;;9.70;99.90;;;;;;5069647;28;20238;-78
2022/05/28 05:54:05;;;;;;;2.23;0.90;;;9.70;99.90;;;;;;5069250;28;20228;-78
2022/05/28 05:56:33;;;;;;;2.47;1.30;;;9.70;99.90;;;;;;5069598;28;20238;-78
2022/05/28 05:58:59;;;;;;;2.13;1.30;;;9.80;99.90;;;;;;5068145;28;20199;-78
2022/05/28 06:01:26;;;;;;;2.50;1.23;;;9.80;99.90;;;;;;5050363;28;20693;-77
2022/05/28 06:03:53;;;;;;;1.93;1.37;;;9.90;99.90;;;;;;5048835;28;20792;-78
2022/05/28 06:06:21;;;;;;;3.37;0.93;;;10.00;99.90;;;;;;5052760;28;20258;-78
2022/05/28 06:08:48;;;;;;;1.20;0.70;;;10.10;99.90;;;;;;5048731;28;20731;-78
2022/05/28 06:11:15;;;;;;;3.57;1.10;;;10.10;99.90;;;;;;5068695;28;20210;-77
2022/05/28 06:13:43;;;;;;;3.30;1.20;;;10.10;99.90;;;;;;5069362;28;20215;-76
2022/05/28 06:16:10;;;;;;;2.50;1.27;;;10.10;99.90;;;;;;5066020;28;20196;-76
2022/05/28 06:18:36;;;;;;;0.93;0.70;;;10.10;99.90;;;;;;5051020;28;20216;-77
2022/05/28 06:21:06;;;;;;;1.60;1.00;;;10.10;99.90;;;;;;5054324;28;20258;-79
2022/05/28 06:23:33;;;;;;;1.50;0.80;;;10.10;99.90;;;;;;5048597;28;20667;-79
2022/05/28 06:25:59;;;;;;;3.17;1.50;;;10.20;99.90;;;;;;5048734;28;20289;-79
2022/05/28 06:28:26;;;;;;;2.90;0.90;;;10.30;99.90;;;;;;5048856;28;20692;-79
2022/05/28 06:30:54;;;;;;;2.47;1.00;;;10.30;99.90;;;;;;5048789;28;20546;-79
2022/05/28 06:33:21;;;;;;;2.03;0.93;;;10.30;99.90;;;;;;5048912;28;20293;-79
2022/05/28 06:35:47;;;;;;;4.13;1.00;;;10.30;99.90;;;;;;5052667;28;20235;-78
2022/05/28 06:38:14;;;;;;;3.37;1.30;;;10.40;99.90;;;;;;5068483;28;20214;-78
2022/05/28 06:40:41;;;;;;;2.80;1.20;;;10.50;99.90;;;;;;5068502;28;21080;-78
2022/05/28 06:43:08;;;;;;;5.67;1.77;;;10.50;99.90;;;;;;5068216;28;20662;-78
2022/05/28 06:45:34;;;;;;;3.73;1.40;;;10.50;99.90;;;;;;5066994;28;20223;-76
2022/05/28 06:48:03;;;;;;;2.90;1.30;;;10.40;99.90;;;;;;5068352;28;20238;-76
2022/05/28 06:53:20;;;;;;;4.17;1.33;;;10.50;99.90;;;;;;5067210;28;20202;-77
2022/05/28 06:55:48;;;;;;;4.00;1.30;;;10.60;99.90;;;;;;5068152;28;20235;-77
2022/05/28 06:58:15;;;;;;;2.77;1.10;;;10.50;99.90;;;;;;5068300;28;20203;-76
2022/05/28 07:00:42;;;;;;;1.73;1.00;;;10.50;99.90;;;;;;5068325;28;20257;-77
2022/05/28 07:03:15;;;;;;;3.87;1.30;;;10.50;99.90;;;;;;5067240;28;20207;-78
2022/05/28 07:05:42;;;;;;;10.07;1.83;;;10.50;99.90;;;;;;5068440;28;20230;-79
2022/05/28 07:08:09;;;;;;;2.43;1.27;;;10.50;99.90;;;;;;5067829;28;20207;-75
2022/05/28 07:10:38;;;;;;;2.93;1.37;;;10.60;99.90;;;;;;5068050;28;20670;-77
2022/05/28 07:13:05;;;;;;;3.77;1.90;;;10.70;99.90;;;;;;5067611;28;20646;-77
2022/05/28 07:15:32;;;;;;;3.27;1.20;;;10.80;99.90;;;;;;5045422;28;20232;-76
2022/05/28 07:17:59;;;;;;;3.13;1.40;;;10.80;99.90;;;;;;5051366;28;20281;-77
2022/05/28 07:20:27;;;;;;;4.30;1.50;;;10.90;99.90;;;;;;5047864;28;20561;-76
2022/05/28 07:22:53;;;;;;;3.47;1.30;;;11.00;99.90;;;;;;5049909;28;20207;-77
2022/05/28 07:25:20;;;;;;;2.57;1.10;;;11.00;99.90;;;;;;5060162;28;20205;-76
2022/05/28 07:27:47;;;;;;;3.93;1.63;;;11.00;99.90;;;;;;5063642;28;20215;-76
2022/05/28 07:30:14;;;;;;;3.73;1.40;;;11.20;99.90;;;;;;5062887;28;20623;-77
2022/05/28 07:32:41;;;;;;;1.93;1.20;;;11.20;99.90;;;;;;5063361;28;20235;-76
2022/05/28 07:35:09;;;;;;;2.10;1.00;;;11.30;99.90;;;;;;5063760;28;20265;-76
2022/05/28 07:37:36;;;;;;;3.13;1.50;;;11.30;99.90;;;;;;5063897;28;20211;-76
2022/05/28 07:40:04;;;;;;;5.13;1.40;;;11.30;99.90;;;;;;5063037;28;20677;-78
2022/05/28 07:42:30;;;;;;;2.60;1.20;;;11.40;99.90;;;;;;5063417;28;20649;-77
2022/05/28 07:44:57;;;;;;;2.87;1.23;;;11.40;99.90;;;;;;5063558;28;20223;-77
2022/05/28 07:47:24;;;;;;;5.57;1.33;;;11.50;99.90;;;;;;5060487;28;20664;-77
2022/05/28 07:49:50;;;;;;;3.33;1.00;;;11.50;99.90;;;;;;5059895;28;20208;-77
2022/05/28 07:52:17;;;;;;;1.93;1.30;;;11.50;99.90;;;;;;5062940;28;20660;-77
2022/05/28 07:54:46;;;;;;;4.40;1.47;;;11.60;99.90;;;;;;5051102;28;20235;-77
2022/05/28 07:57:13;;;;;;;2.83;1.13;;;11.60;99.90;;;;;;5055702;28;20725;-77
2022/05/28 07:59:39;;;;;;;5.60;1.53;;;11.70;99.90;;;;;;5059935;28;20281;-77
2022/05/28 08:02:07;;;;;;;3.83;1.33;;;11.80;99.90;;;;;;5064081;28;20576;-77
2022/05/28 08:04:33;;;;;;;4.83;1.40;;;11.90;99.90;;;;;;5063853;28;20207;-77
2022/05/28 08:07:01;;;;;;;2.47;1.30;;;12.00;99.90;;;;;;5064367;28;20471;-81
2022/05/28 08:09:27;;;;;;;6.03;1.70;;;12.10;99.90;;;;;;5064712;28;20241;-76
2022/05/28 08:11:55;;;;;;;6.23;1.80;;;12.10;99.90;;;;;;5062994;28;20209;-76
2022/05/28 08:14:22;;;;;;;4.00;1.57;;;12.10;99.90;;;;;;5060174;28;20673;-77
2022/05/28 08:16:48;;;;;;;3.27;1.97;;;12.30;99.90;;;;;;5050728;28;20261;-76
2022/05/28 08:19:15;;;;;;;6.73;1.80;;;12.50;99.90;;;;;;5080393;28;20673;-78
2022/05/28 08:24:26;;;;;;;3.00;1.47;;;12.50;99.90;;;;;;5068107;28;20202;-76
2022/05/28 08:26:52;;;;;;;4.70;1.47;;;12.50;99.90;;;;;;5057293;28;20211;-77
2022/05/28 08:29:22;;;;;;;2.77;1.37;;;12.30;99.90;;;;;;5057957;28;20277;-77
2022/05/28 08:31:49;;;;;;;5.27;1.70;;;12.40;99.90;;;;;;5063983;28;20203;-76
2022/05/28 08:34:15;;;;;;;6.43;1.93;;;12.50;99.90;;;;;;5058619;28;20202;-77
2022/05/28 08:36:42;;;;;;;2.60;1.00;;;12.70;99.90;;;;;;5057034;28;20691;-77
2022/05/28 08:39:09;;;;;;;3.93;1.73;;;12.80;99.90;;;;;;5055052;28;20200;-76
2022/05/28 08:41:43;;;;;;;4.63;1.70;;;12.70;99.90;;;;;;5055111;28;20313;-77
2022/05/28 08:44:16;;;;;;;3.30;1.40;;;12.60;99.90;;;;;;5056200;28;20203;-77
2022/05/28 08:46:46;;;;;;;2.70;1.30;;;12.60;99.90;;;;;;5059652;28;20223;-76
2022/05/28 08:49:15;;;;;;;5.27;1.87;;;12.50;99.90;;;;;;5059209;28;20188;-77
2022/05/28 08:51:48;;;;;;;4.47;1.77;;;12.40;99.90;;;;;;5061917;28;20196;-77
2022/05/28 08:54:24;;;;;;;3.20;1.10;;;12.50;99.90;;;;;;5062707;28;20203;-76
2022/05/28 08:56:54;;;;;;;3.27;1.50;;;12.80;99.90;;;;;;5060536;28;20215;-77
2022/05/28 08:59:26;;;;;;;2.80;1.17;;;13.00;99.90;;;;;;5057002;28;20242;-77
2022/05/28 09:01:55;;;;;;;3.97;1.67;;;13.10;99.90;;;;;;5056845;28;20650;-76
2022/05/28 09:04:30;;;;;;;5.27;1.60;;;13.20;99.90;;;;;;5056366;28;20232;-76
2022/05/28 09:07:04;;;;;;;4.57;1.70;;;13.20;99.90;;;;;;5056088;28;20196;-77
2022/05/28 09:09:38;;;;;;;2.83;1.33;;;13.30;99.90;;;;;;5059389;28;20288;-77
2022/05/28 09:12:08;;;;;;;3.80;1.53;;;13.30;99.90;;;;;;5046956;28;20274;-77
2022/05/28 09:14:37;;;;;;;3.17;1.77;;;13.20;99.90;;;;;;5047748;28;20239;-77
2022/05/28 09:17:09;;;;;;;7.57;1.50;;;13.10;99.90;;;;;;5057131;28;20273;-76
2022/05/28 09:19:42;;;;;;;3.27;1.27;;;13.10;99.90;;;;;;5067054;28;20211;-76
2022/05/28 09:22:09;;;;;;;2.93;1.87;;;13.10;99.90;;;;;;5056739;28;20628;-76
2022/05/28 09:24:36;;;;;;;6.60;1.87;;;13.20;99.90;;;;;;5052802;28;20208;-76
2022/05/28 09:27:27;;;;;;;3.40;1.50;;;13.20;99.90;;;;;;5057307;28;20593;-77
2022/05/28 09:30:16;;;;;;;6.50;1.63;;;13.10;99.90;;;;;;5047101;28;20655;-77
2022/05/28 09:33:30;;;;;;;3.47;1.50;;;13.10;99.90;;;;;;5044328;28;20196;-77
2022/05/28 09:36:09;;;;;;;2.50;1.47;;;13.40;99.90;;;;;;5034163;28;20651;-77
2022/05/28 09:38:45;;;;;;;4.23;1.40;;;13.60;99.90;;;;;;5046517;28;20223;-77
2022/05/28 09:41:30;;;;;;;3.67;1.53;;;13.90;99.90;;;;;;5052710;28;20272;-77
2022/05/28 09:44:07;;;;;;;2.90;1.50;;;13.90;99.90;;;;;;5060174;28;20192;-78
2022/05/28 09:46:37;;;;;;;4.83;1.33;;;13.80;99.90;;;;;;5054219;28;20277;-77
2022/05/28 09:49:11;;;;;;;3.30;1.40;;;13.50;99.90;;;;;;5048711;28;20246;-77
2022/05/28 09:51:38;;;;;;;3.33;1.50;;;13.30;99.90;;;;;;5052265;28;20207;-77
2022/05/28 09:56:57;;;;;;;3.43;2.00;;;13.20;99.90;;;;;;5046583;28;20592;-77
2022/05/28 09:59:32;;;;;;;5.57;2.70;;;13.50;99.90;;;;;;5049748;28;20196;-77
2022/05/28 10:02:04;;;;;;;3.37;1.37;;;13.60;99.90;;;;;;5049450;28;20275;-76
2022/05/28 10:04:32;;;;;;;4.87;1.60;;;13.50;99.90;;;;;;5049246;28;20279;-77
2022/05/28 10:07:02;;;;;;;5.30;1.67;;;13.70;99.90;;;;;;5066584;28;20216;-77
2022/05/28 10:09:30;;;;;;;3.20;1.53;;;13.70;99.90;;;;;;5058784;28;20268;-75
2022/05/28 10:11:59;;;;;;;3.97;1.50;;;13.90;99.90;;;;;;5062930;28;21007;-76
2022/05/28 10:14:28;;;;;;;4.30;2.10;;;13.80;99.90;;;;;;5068315;28;20199;-77
2022/05/28 10:16:58;;;;;;;3.20;1.53;;;13.90;99.90;;;;;;5064157;28;20255;-77
2022/05/28 10:19:35;;;;;;;3.77;1.97;;;13.90;99.90;;;;;;5068645;28;20203;-77
2022/05/28 10:22:05;;;;;;;3.53;1.50;;;14.00;99.90;;;;;;5056964;28;20199;-77
2022/05/28 10:24:41;;;;;;;3.37;1.50;;;14.20;99.90;;;;;;5059911;28;20200;-77
2022/05/28 10:27:30;;;;;;;6.07;1.90;;;14.20;99.90;;;;;;5061283;28;20269;-77
2022/05/28 10:30:02;;;;;;;2.70;1.70;;;14.20;99.90;;;;;;5048517;28;20250;-77
2022/05/28 10:32:34;;;;;;;2.47;1.40;;;14.40;99.90;;;;;;5049807;28;20204;-77
2022/05/28 10:35:08;;;;;;;2.43;1.50;;;14.70;99.90;;;;;;5068393;28;20203;-77
2022/05/28 10:37:35;;;;;;;3.03;1.60;;;14.90;99.90;;;;;;5057362;28;20193;-76
2022/05/28 10:40:09;;;;;;;3.90;1.47;;;15.00;99.90;;;;;;5057768;28;20196;-75
2022/05/28 10:42:37;;;;;;;9.40;1.77;;;15.00;99.90;;;;;;5060470;28;20227;-75
2022/05/28 10:45:06;;;;;;;2.73;1.33;;;14.80;99.90;;;;;;5059462;28;20215;-75
2022/05/28 10:47:59;;;;;;;3.67;1.40;;;14.60;99.90;;;;;;5067556;28;20204;-75
2022/05/28 10:50:37;;;;;;;3.57;1.50;;;14.50;99.90;;;;;;5051235;28;20200;-74
2022/05/28 10:53:14;;;;;;;5.23;1.57;;;14.80;99.90;;;;;;5062357;28;20261;-75
2022/05/28 10:55:55;;;;;;;3.13;1.80;;;15.00;99.90;;;;;;5068356;28;20222;-75
2022/05/28 10:58:48;;;;;;;2.23;1.60;;;15.30;99.90;;;;;;5062537;28;20192;-75
2022/05/28 11:01:31;;;;;;;3.10;1.50;;;15.50;99.90;;;;;;5048322;28;20196;-75
2022/05/28 11:04:22;;;;;;;4.13;1.87;;;15.60;99.90;;;;;;5051744;28;20196;-77
2022/05/28 11:07:36;;;;;;;3.53;1.60;;;15.70;99.90;;;;;;5066721;28;20699;-76
2022/05/28 11:10:19;;;;;;;3.40;1.87;;;15.80;99.90;;;;;;5030404;28;20257;-75
2022/05/28 11:13:10;;;;;;;4.23;1.50;;;16.00;99.90;;;;;;5057302;28;20270;-75
2022/05/28 11:15:59;;;;;;;5.10;2.07;;;15.70;99.90;;;;;;5048008;28;20232;-75
2022/05/28 11:18:43;;;;;;;5.53;1.63;;;15.70;99.90;;;;;;5063609;28;20682;-75
2022/05/28 11:21:31;;;;;;;5.97;2.40;;;15.60;99.90;;;;;;5057696;28;20226;-75
2022/05/28 11:24:32;;;;;;;4.73;2.70;;;15.80;99.90;;;;;;5067694;28;20199;-76
2022/05/28 11:27:05;;;;;;;2.77;1.80;;;16.10;99.90;;;;;;5063698;28;20205;-75
2022/05/28 11:29:48;;;;;;;7.27;1.80;;;16.30;99.90;;;;;;5047768;28;20207;-75
2022/05/28 11:32:19;;;;;;;4.03;1.83;;;15.90;99.90;;;;;;5057753;28;20650;-75
2022/05/28 11:34:53;;;;;;;5.33;1.63;;;15.50;99.90;;;;;;5052297;28;20607;-75
2022/05/28 11:37:24;;;;;;;2.37;1.50;;;14.70;99.90;;;;;;5060376;28;21092;-75
2022/05/28 11:39:57;;;;;;;2.27;1.50;;;14.40;99.90;;;;;;5047483;28;20200;-75
2022/05/28 11:42:31;;;;;;;4.03;1.70;;;14.60;99.90;;;;;;5062072;28;20231;-75
2022/05/28 11:45:00;;;;;;;3.60;1.80;;;14.70;99.90;;;;;;5049450;28;20234;-75
2022/05/28 11:47:44;;;;;;;4.83;1.33;;;15.00;99.90;;;;;;5054878;28;20203;-75
2022/05/28 11:53:09;;;;;;;3.17;1.10;;;15.10;99.90;;;;;;5053892;28;20195;-75
2022/05/28 11:55:39;;;;;;;1.53;1.20;;;15.10;99.90;;;;;;5064240;28;20533;-75
2022/05/28 11:58:15;;;;;;;2.67;1.40;;;15.30;99.90;;;;;;5058216;28;20203;-75
2022/05/28 12:00:46;;;;;;;3.60;1.30;;;15.40;99.90;;;;;;5072904;28;20249;-75
2022/05/28 12:03:17;;;;;;;2.10;1.13;;;15.70;99.90;;;;;;5059834;28;20609;-75
2022/05/28 12:05:49;;;;;;;1.30;1.00;;;16.10;99.90;;;;;;5065038;28;20203;-76
2022/05/28 12:08:26;;;;;;;2.60;1.20;;;16.10;99.90;;;;;;5067139;28;20196;-76
2022/05/28 12:10:59;;;;;;;6.40;1.33;;;16.20;99.90;;;;;;5054299;28;20562;-75
2022/05/28 12:13:33;;;;;;;3.37;1.50;;;16.20;99.90;;;;;;5068335;28;20195;-75
2022/05/28 12:16:12;;;;;;;3.83;1.60;;;16.50;99.90;;;;;;5072020;28;20440;-75
2022/05/28 12:18:42;;;;;;;3.57;1.30;;;16.10;99.90;;;;;;5070763;28;20264;-75
2022/05/28 12:21:09;;;;;;;3.57;1.47;;;15.80;99.90;;;;;;5066787;28;20199;-75
2022/05/28 12:23:38;;;;;;;4.53;1.40;;;15.50;99.90;;;;;;5073425;28;20261;-75
2022/05/28 12:26:43;;;;;;;3.00;2.27;;;15.40;99.90;;;;;;5056293;28;20592;-75
2022/05/28 12:29:08;;;;;;;2.33;1.10;;;14.90;99.90;;;;;;5073241;28;20235;-76
2022/05/28 12:31:34;;;;;;;5.03;1.50;;;13.90;99.90;;;;;;5070701;28;20672;-75
2022/05/28 12:34:02;;;;;;;1.30;0.87;;;13.40;99.90;;;;;;5067113;28;20203;-75
2022/05/28 12:36:38;;;;;;;4.30;1.20;;;13.30;99.90;;;;;;5073565;28;20227;-75
2022/05/28 12:39:21;;;;;;;3.43;1.17;;;13.40;99.90;;;;;;5072150;28;20209;-76
2022/05/28 12:41:58;;;;;;;1.47;1.00;;;13.70;99.90;;;;;;5066158;28;20231;-76
2022/05/28 12:44:26;;;;;;;4.17;1.23;;;14.20;99.90;;;;;;5073474;28;20199;-75
2022/05/28 12:46:55;;;;;;;3.47;1.40;;;14.60;99.90;;;;;;5053961;28;20204;-75
2022/05/28 12:49:27;;;;;;;4.93;1.23;;;15.00;99.90;;;;;;5053657;28;20759;-75
2022/05/28 12:52:08;;;;;;;3.53;1.40;;;15.50;99.90;;;;;;5062718;28;20282;-76
2022/05/28 12:54:38;;;;;;;4.83;1.37;;;15.90;99.90;;;;;;5053287;28;20200;-75
2022/05/28 12:57:10;;;;;;;14.03;1.60;;;16.20;99.90;;;;;;5053218;28;20273;-76
2022/05/28 12:59:39;;;;;;;2.80;1.30;;;16.40;99.90;;;;;;5051277;28;20536;-75
2022/05/28 13:02:25;;;;;;;2.80;1.53;;;16.30;99.90;;;;;;5058670;28;20200;-75
2022/05/28 13:04:56;;;;;;;4.30;1.40;;;16.40;99.90;;;;;;5051015;28;20214;-75
2022/05/28 13:07:27;;;;;;;4.37;1.43;;;15.70;99.90;;;;;;5047440;28;20210;-75
2022/05/28 13:10:04;;;;;;;2.30;1.00;;;15.50;99.90;;;;;;5054066;28;20233;-74
2022/05/28 13:12:38;;;;;;;1.47;1.20;;;15.20;99.90;;;;;;5060710;28;20202;-75
2022/05/28 13:15:40;;;;;;;3.90;1.40;;;15.10;99.90;;;;;;5054310;28;20596;-75
2022/05/28 13:18:36;;;;;;;1.50;1.10;;;15.00;99.90;;;;;;5058543;28;20289;-75